Time;durP1;ratioP1;P1;durP2;ratioP2;P2;SDS_P1;SDS_P2;PMS_P1;PMS_P2;Temp;Humidity;BMP_temperature;BMP_pressure;BME280_temperature;BME280_humidity;BME280_pressure;Samples;Min_cycle;Max_cycle;Signal;HPM_P1;HPM_P2
2022/01/27 00:05:48;;;;;;;1999.90;999.90;;;;;;;2.62;100.00;163097.09;4966970;28;20432;-66
2022/01/27 00:08:20;;;;;;;1999.90;999.90;;;;;;;2.55;100.00;163076.56;4968591;28;20055;-67
2022/01/27 00:10:53;;;;;;;1999.90;999.90;;;;;;;1.86;100.00;162893.06;4967441;28;20047;-66
2022/01/27 00:13:28;;;;;;;1999.90;999.90;;;;;;;2.16;100.00;162972.47;4969464;28;20058;-66
2022/01/27 00:16:16;;;;;;;1999.90;999.90;;;;;;;2.44;100.00;163049.19;4968523;28;20060;-66
2022/01/27 00:18:46;;;;;;;1999.90;999.90;;;;;;;2.47;100.00;163057.38;4967815;28;20383;-66
2022/01/27 00:21:14;;;;;;;1999.90;999.90;;;;;;;2.35;100.00;163024.50;4967756;28;20121;-66
2022/01/27 00:23:41;;;;;;;1999.90;999.90;;;;;;;1.73;100.00;162860.22;4965101;28;20075;-66
2022/01/27 00:26:09;;;;;;;1999.90;999.90;;;;;;;1.55;100.00;162810.94;4966032;28;20109;-66
2022/01/27 00:28:35;;;;;;;1999.90;999.90;;;;;;;1.88;100.00;162899.91;4969148;28;20498;-66
2022/01/27 00:31:02;;;;;;;1999.90;999.90;;;;;;;1.96;100.00;162919.09;4970107;28;20117;-66
2022/01/27 00:33:29;;;;;;;1999.90;999.90;;;;;;;1.92;100.00;162909.47;4968418;28;20507;-66
2022/01/27 00:35:55;;;;;;;1999.90;999.90;;;;;;;2.10;100.00;162958.78;4968589;28;20341;-66
2022/01/27 00:38:22;;;;;;;1999.90;999.90;;;;;;;2.17;100.00;162975.22;4968352;28;20155;-66
2022/01/27 00:40:48;;;;;;;1999.90;999.90;;;;;;;2.21;100.00;162987.53;4967502;28;20052;-66
2022/01/27 00:43:15;;;;;;;1999.90;999.90;;;;;;;2.28;100.00;163005.34;4967867;28;20085;-66
2022/01/27 00:45:41;;;;;;;1999.90;999.90;;;;;;;2.78;100.00;163139.59;4968022;28;20050;-67
2022/01/27 00:48:08;;;;;;;1999.90;999.90;;;;;;;2.54;99.80;163073.81;4968350;28;20644;-66
2022/01/27 00:50:37;;;;;;;1999.90;999.90;;;;;;;2.59;100.00;163087.50;4973655;28;20491;-67
2022/01/27 00:53:21;;;;;;;1999.90;999.90;;;;;;;2.76;100.00;163132.72;4967983;28;20050;-66
2022/01/27 00:55:49;;;;;;;1999.90;999.90;;;;;;;2.52;100.00;163068.38;4965169;28;20081;-66
2022/01/27 01:01:04;;;;;;;1999.90;999.90;;;;;;;2.53;100.00;163072.47;4966382;28;20046;-66
2022/01/27 01:03:35;;;;;;;1999.90;999.90;;;;;;;2.18;100.00;162977.97;4966913;28;20054;-66
2022/01/27 01:09:43;;;;;;;1999.90;999.90;;;;;;;2.19;100.00;162980.66;4959940;28;20082;-66
2022/01/27 01:19:26;;;;;;;1999.90;999.90;;;;;;;2.10;100.00;162958.78;4967018;28;20047;-66
2022/01/27 01:32:54;;;;;;;1999.90;999.90;;;;;;;2.69;100.00;163114.91;4967102;28;20058;-67
2022/01/27 01:35:28;;;;;;;1999.90;999.90;;;;;;;2.81;100.00;163147.81;4968793;28;20518;-66
2022/01/27 01:37:58;;;;;;;1999.90;999.90;;;;;;;2.99;98.80;163195.75;4967491;28;20419;-66
2022/01/27 01:40:25;;;;;;;1999.90;999.90;;;;;;;2.80;98.89;163143.69;4968855;28;20060;-67
2022/01/27 01:42:51;;;;;;;1999.90;999.90;;;;;;;2.21;100.00;162986.19;4968027;28;20145;-67
2022/01/27 01:45:20;;;;;;;1999.90;999.90;;;;;;;2.06;100.00;162947.81;4966417;28;20051;-66
2022/01/27 01:47:48;;;;;;;1999.90;999.90;;;;;;;2.36;100.00;163027.25;4967258;28;20109;-66
2022/01/27 01:50:15;;;;;;;1999.90;999.90;;;;;;;2.32;100.00;163016.28;4966439;28;20059;-66
2022/01/27 01:52:43;;;;;;;1999.90;999.90;;;;;;;2.32;100.00;163016.28;4965361;28;20454;-66
2022/01/27 01:55:11;;;;;;;1999.90;999.90;;;;;;;2.67;100.00;163109.44;4967862;28;20046;-66
2022/01/27 01:57:37;;;;;;;1999.90;999.90;;;;;;;2.50;100.00;163062.84;4968732;28;20046;-67
2022/01/27 02:00:06;;;;;;;1999.90;999.90;;;;;;;2.87;99.49;163162.84;4967237;28;20101;-67
2022/01/27 02:02:32;;;;;;;1999.90;999.90;;;;;;;2.98;98.66;163191.66;4968569;28;20066;-66
2022/01/27 02:04:59;;;;;;;1999.90;999.90;;;;;;;2.82;98.48;163150.50;4968261;28;20047;-66
2022/01/27 02:07:58;;;;;;;1999.90;999.90;;;;;;;3.09;98.54;163220.41;4967566;28;20405;-66
2022/01/27 02:18:29;;;;;;;1999.90;999.90;;;;;;;3.27;97.28;163268.38;4966649;28;20403;-66
2022/01/27 02:20:56;;;;;;;1999.90;999.90;;;;;;;3.00;98.22;163198.47;4969378;28;20419;-66
2022/01/27 02:23:22;;;;;;;1999.90;999.90;;;;;;;2.59;98.98;163087.50;4967609;28;20043;-67
2022/01/27 02:25:49;;;;;;;1999.90;999.90;;;;;;;2.75;99.51;163131.31;4966910;28;20086;-66
2022/01/27 02:28:15;;;;;;;1999.90;999.90;;;;;;;2.79;98.08;163142.28;4970183;28;20043;-67
2022/01/27 02:30:42;;;;;;;1999.90;999.90;;;;;;;2.50;99.65;163062.84;4967930;28;20336;-67
2022/01/27 02:33:08;;;;;;;1999.90;999.90;;;;;;;2.62;99.86;163097.09;4985069;28;20214;-66
2022/01/27 02:35:35;;;;;;;1999.90;999.90;;;;;;;2.85;99.04;163156.03;4972069;28;20055;-66
2022/01/27 02:38:01;;;;;;;1999.90;999.90;;;;;;;2.53;99.35;163071.06;4968751;28;20067;-66
2022/01/27 02:40:42;;;;;;;1999.90;999.90;;;;;;;2.40;100.00;163038.22;4970075;28;20470;-67
2022/01/27 02:43:09;;;;;;;1999.90;999.90;;;;;;;1.96;100.00;162920.44;4971390;28;20054;-66
2022/01/27 02:45:36;;;;;;;1999.90;999.90;;;;;;;2.59;99.82;163088.91;4968913;28;20395;-66
2022/01/27 02:48:03;;;;;;;1999.90;999.90;;;;;;;2.79;98.31;163140.94;4971497;28;20047;-66
2022/01/27 02:50:29;;;;;;;1999.90;999.90;;;;;;;2.99;97.38;163195.75;4970071;28;20337;-66
2022/01/27 02:52:56;;;;;;;1999.90;999.90;;;;;;;3.05;96.88;163209.44;4970568;28;20301;-66
2022/01/27 02:55:23;;;;;;;1999.90;999.90;;;;;;;2.86;97.24;163160.13;4971867;28;20061;-66
2022/01/27 02:57:49;;;;;;;1999.90;999.90;;;;;;;2.27;98.42;163002.59;4969562;28;20117;-66
2022/01/27 03:00:16;;;;;;;1999.90;999.90;;;;;;;2.22;98.87;162988.88;4966387;28;20408;-66
2022/01/27 03:02:42;;;;;;;1999.90;999.90;;;;;;;1.73;99.94;162860.22;4970833;28;20109;-66
2022/01/27 03:05:09;;;;;;;1999.90;999.90;;;;;;;1.78;100.00;162871.19;4970003;28;20055;-66
2022/01/27 03:07:36;;;;;;;1999.90;999.90;;;;;;;2.17;100.00;162976.56;4969639;28;20102;-66
2022/01/27 03:10:03;;;;;;;1999.90;999.90;;;;;;;2.41;98.70;163040.97;4969109;28;20055;-66
2022/01/27 03:12:30;;;;;;;1999.90;999.90;;;;;;;2.11;98.48;162961.53;4968506;28;20292;-66
2022/01/27 03:15:00;;;;;;;1999.90;999.90;;;;;;;1.84;100.00;162887.59;4969468;28;20078;-66
2022/01/27 03:17:26;;;;;;;1999.90;999.90;;;;;;;2.24;99.19;162994.38;4970453;28;20049;-67
2022/01/27 03:19:53;;;;;;;1999.90;999.90;;;;;;;2.49;98.50;163060.09;4966565;28;20047;-66
2022/01/27 03:22:19;;;;;;;1999.90;999.90;;;;;;;2.34;98.22;163020.38;4969005;28;20345;-67
2022/01/27 03:24:46;;;;;;;1999.90;999.90;;;;;;;2.24;98.02;162994.38;4970431;28;20337;-66
2022/01/27 03:27:18;;;;;;;1999.90;999.90;;;;;;;2.00;99.29;162930.06;4967765;28;20038;-66
2022/01/27 03:29:45;;;;;;;1999.90;999.90;;;;;;;1.56;100.00;162813.66;4970055;28;20153;-66
2022/01/27 03:32:12;;;;;;;1999.90;999.90;;;;;;;1.47;100.00;162790.38;4969870;28;20109;-67
2022/01/27 03:34:38;;;;;;;1999.90;999.90;;;;;;;1.68;100.00;162846.53;4967594;28;20113;-66
2022/01/27 03:37:05;;;;;;;1999.90;999.90;;;;;;;2.11;100.00;162961.53;4969235;28;20522;-67
2022/01/27 03:39:35;;;;;;;1999.90;999.90;;;;;;;2.06;99.02;162947.81;4969386;28;20141;-66
2022/01/27 03:42:06;;;;;;;1999.90;999.90;;;;;;;1.75;99.86;162865.66;4967169;28;20207;-66
2022/01/27 03:44:33;;;;;;;1999.90;999.90;;;;;;;1.57;100.00;162817.75;4969890;28;20121;-66
2022/01/27 03:47:00;;;;;;;1999.90;999.90;;;;;;;1.82;100.00;162882.13;4968675;28;20104;-66
2022/01/27 03:49:27;;;;;;;1999.90;999.90;;;;;;;1.94;99.49;162914.97;4968883;28;20051;-66
2022/01/27 03:51:58;;;;;;;1999.90;999.90;;;;;;;1.92;99.56;162910.88;4969470;28;20105;-66
2022/01/27 03:54:26;;;;;;;1999.90;999.90;;;;;;;2.07;99.26;162950.56;4969060;28;20055;-67
2022/01/27 03:56:52;;;;;;;1999.90;999.90;;;;;;;2.47;97.91;163057.38;4967071;28;20054;-66
2022/01/27 03:59:19;;;;;;;1999.90;999.90;;;;;;;2.37;97.94;163028.66;4968765;28;20450;-66
2022/01/27 04:01:45;;;;;;;1999.90;999.90;;;;;;;2.10;97.85;162957.44;4969115;28;20055;-66
2022/01/27 04:04:14;;;;;;;1999.90;999.90;;;;;;;2.14;98.13;162968.34;4969025;28;20073;-67
2022/01/27 04:06:41;;;;;;;1999.90;999.90;;;;;;;2.33;98.28;163019.03;4969410;28;20443;-66
2022/01/27 04:09:09;;;;;;;1999.90;999.90;;;;;;;2.12;98.25;162962.91;4967724;28;20408;-66
2022/01/27 04:11:39;;;;;;;1999.90;999.90;;;;;;;1.96;99.33;162920.44;4968928;28;20443;-66
2022/01/27 04:14:07;;;;;;;1999.90;999.90;;;;;;;1.75;100.00;162865.66;4971350;28;20365;-66
2022/01/27 04:16:33;;;;;;;1999.90;999.90;;;;;;;1.85;100.00;162890.34;4982831;28;20098;-66
2022/01/27 04:19:00;;;;;;;1999.90;999.90;;;;;;;2.03;99.43;162939.59;4968837;28;20082;-66
2022/01/27 04:21:26;;;;;;;1999.90;999.90;;;;;;;2.15;99.44;162969.75;4969073;28;20047;-66
2022/01/27 04:23:53;;;;;;;1999.90;999.90;;;;;;;1.91;99.24;162906.78;4966312;28;20514;-66
2022/01/27 04:26:25;;;;;;;1999.90;999.90;;;;;;;1.92;99.66;162909.47;4968419;28;20106;-66
2022/01/27 04:28:53;;;;;;;1999.90;999.90;;;;;;;1.67;100.00;162842.44;4969923;28;20092;-66
2022/01/27 04:31:20;;;;;;;1999.90;999.90;;;;;;;1.48;100.00;162793.13;4967505;28;20051;-66
2022/01/27 04:33:47;;;;;;;1999.90;999.90;;;;;;;1.52;100.00;162802.69;4968860;28;20047;-66
2022/01/27 04:36:34;;;;;;;1999.90;999.90;;;;;;;1.73;100.00;162858.88;4969022;28;20584;-66
2022/01/27 04:39:23;;;;;;;1999.90;999.90;;;;;;;1.74;100.00;162861.56;4967654;28;20047;-66
2022/01/27 04:47:28;;;;;;;1999.90;999.90;;;;;;;1.49;100.00;162794.50;4965810;28;20047;-66
2022/01/27 04:49:56;;;;;;;1999.90;999.90;;;;;;;1.31;100.00;162746.59;4964758;28;20047;-66
2022/01/27 04:52:24;;;;;;;1999.90;999.90;;;;;;;1.42;100.00;162776.72;4965851;28;20122;-66
2022/01/27 04:54:58;;;;;;;1999.90;999.90;;;;;;;1.37;100.00;162764.41;4967589;28;20046;-66
2022/01/27 04:57:28;;;;;;;1999.90;999.90;;;;;;;1.43;100.00;162779.47;4966620;28;20439;-66
2022/01/27 04:59:54;;;;;;;1999.90;999.90;;;;;;;1.53;100.00;162805.44;4968083;28;20093;-66
2022/01/27 05:02:47;;;;;;;1999.90;999.90;;;;;;;1.36;100.00;162761.66;4966289;28;20260;-66
2022/01/27 05:05:18;;;;;;;1999.90;999.90;;;;;;;1.53;100.00;162805.44;4965312;28;20448;-66
2022/01/27 05:07:56;;;;;;;1999.90;999.90;;;;;;;1.50;100.00;162797.25;4967295;28;20046;-66
2022/01/27 05:10:27;;;;;;;1999.90;999.90;;;;;;;1.43;100.00;162778.06;4968848;28;20440;-66
2022/01/27 05:13:00;;;;;;;1999.90;999.90;;;;;;;1.28;100.00;162739.78;4966897;28;20058;-66
2022/01/27 05:15:26;;;;;;;1999.90;999.90;;;;;;;1.15;100.00;162704.22;4968758;28;20055;-67
2022/01/27 05:17:53;;;;;;;1999.90;999.90;;;;;;;1.16;100.00;162706.91;4967800;28;20234;-66
2022/01/27 05:20:19;;;;;;;1999.90;999.90;;;;;;;1.44;100.00;162782.19;4967588;28;20047;-66
2022/01/27 05:22:46;;;;;;;1999.90;999.90;;;;;;;1.30;100.00;162745.25;4967253;28;20400;-66
2022/01/27 05:25:12;;;;;;;1999.90;999.90;;;;;;;1.13;100.00;162698.72;4967165;28;20120;-66
2022/01/27 05:27:39;;;;;;;1999.90;999.90;;;;;;;1.42;100.00;162776.72;4966110;28;20105;-66
2022/01/27 05:30:06;;;;;;;1999.90;999.90;;;;;;;1.74;100.00;162862.97;4967639;28;20117;-66
2022/01/27 05:32:34;;;;;;;1999.90;999.90;;;;;;;1.95;100.00;162917.72;4963599;28;20050;-66
2022/01/27 05:35:02;;;;;;;1999.90;999.90;;;;;;;1.64;99.71;162835.59;4966307;28;20068;-66
2022/01/27 05:37:28;;;;;;;1999.90;999.90;;;;;;;1.28;100.00;162739.78;4966141;28;20055;-67
2022/01/27 05:39:55;;;;;;;1999.90;999.90;;;;;;;1.47;100.00;162789.03;4966423;28;20062;-66
2022/01/27 05:42:21;;;;;;;1999.90;999.90;;;;;;;1.26;100.00;162734.28;4967171;28;20340;-66
2022/01/27 05:44:48;;;;;;;1999.90;999.90;;;;;;;1.66;100.00;162839.69;4966086;28;20160;-66
2022/01/27 05:47:14;;;;;;;1999.90;999.90;;;;;;;1.89;100.00;162901.25;4964964;28;20109;-66
2022/01/27 05:49:41;;;;;;;1999.90;999.90;;;;;;;1.76;100.00;162868.41;4967406;28;20068;-66
2022/01/27 05:52:07;;;;;;;1999.90;999.90;;;;;;;1.45;100.00;162784.94;4966299;28;20411;-66
2022/01/27 05:54:35;;;;;;;1999.90;999.90;;;;;;;1.57;100.00;162816.41;4966666;28;20077;-66
2022/01/27 05:57:02;;;;;;;1999.90;999.90;;;;;;;1.42;100.00;162775.38;4968766;28;20054;-67
2022/01/27 05:59:29;;;;;;;1999.90;999.90;;;;;;;1.15;100.00;162704.22;4968414;28;20051;-66
2022/01/27 06:01:55;;;;;;;1999.90;999.90;;;;;;;1.28;100.00;162739.78;4967163;28;20105;-65
2022/01/27 06:04:22;;;;;;;1999.90;999.90;;;;;;;1.24;100.00;162728.84;4969714;28;20215;-65
2022/01/27 06:06:49;;;;;;;1999.90;999.90;;;;;;;1.57;100.00;162816.41;4970420;28;20499;-65
2022/01/27 06:09:16;;;;;;;1999.90;999.90;;;;;;;1.62;100.00;162830.06;4970969;28;20058;-65
2022/01/27 06:11:42;;;;;;;1999.90;999.90;;;;;;;1.76;100.00;162868.41;4972461;28;20050;-65
2022/01/27 06:14:14;;;;;;;1999.90;999.90;;;;;;;1.66;100.00;162839.69;4970912;28;20498;-65
2022/01/27 06:16:41;;;;;;;1999.90;999.90;;;;;;;1.72;100.00;162857.47;4986054;28;20050;-65
2022/01/27 06:19:07;;;;;;;1999.90;999.90;;;;;;;1.67;100.00;162843.78;4972463;28;20391;-65
2022/01/27 06:21:35;;;;;;;1999.90;999.90;;;;;;;1.21;100.00;162721.97;4970220;28;20047;-65
2022/01/27 06:24:03;;;;;;;1999.90;999.90;;;;;;;1.20;100.00;162717.88;4970737;28;20443;-65
2022/01/27 06:26:29;;;;;;;1999.90;999.90;;;;;;;1.35;100.00;162758.91;4973118;28;20081;-65
2022/01/27 06:28:56;;;;;;;1999.90;999.90;;;;;;;1.57;100.00;162816.41;4971308;28;20039;-65
2022/01/27 06:31:24;;;;;;;1999.90;999.90;;;;;;;1.42;100.00;162775.38;4971229;28;20086;-65
2022/01/27 06:33:52;;;;;;;1999.90;999.90;;;;;;;1.27;100.00;162737.03;4972273;28;20058;-65
2022/01/27 06:36:19;;;;;;;1999.90;999.90;;;;;;;1.34;100.00;162756.22;4970343;28;20051;-66
2022/01/27 06:38:46;;;;;;;1999.90;999.90;;;;;;;1.34;100.00;162754.81;4970697;28;20050;-65
2022/01/27 06:41:13;;;;;;;1999.90;999.90;;;;;;;1.34;100.00;162756.22;4971690;28;20059;-65
2022/01/27 06:43:40;;;;;;;1999.90;999.90;;;;;;;1.18;100.00;162712.41;4970352;28;20109;-65
2022/01/27 06:46:06;;;;;;;1999.90;999.90;;;;;;;1.50;100.00;162797.25;4970622;28;20097;-65
2022/01/27 06:48:33;;;;;;;1999.90;999.90;;;;;;;1.97;100.00;162921.84;4970357;28;20055;-65
2022/01/27 06:51:03;;;;;;;1999.90;999.90;;;;;;;1.98;99.74;162925.94;4970030;28;20046;-65
2022/01/27 06:53:30;;;;;;;1999.90;999.90;;;;;;;1.48;100.00;162791.78;4972136;28;20055;-65
2022/01/27 06:55:57;;;;;;;1999.90;999.90;;;;;;;1.00;100.00;162664.53;4969398;28;20400;-65
2022/01/27 06:58:24;;;;;;;1999.90;999.90;;;;;;;1.24;100.00;162728.84;4970308;28;20054;-65
2022/01/27 07:00:50;;;;;;;1999.90;999.90;;;;;;;1.27;100.00;162737.03;4971514;28;20518;-65
2022/01/27 07:03:17;;;;;;;1999.90;999.90;;;;;;;1.15;100.00;162705.56;4969506;28;20050;-65
2022/01/27 07:05:44;;;;;;;1999.90;999.90;;;;;;;0.75;100.00;162598.84;4970830;28;20146;-65
2022/01/27 07:08:10;;;;;;;1999.90;999.90;;;;;;;1.11;100.00;162694.59;4970850;28;20113;-65
2022/01/27 07:10:37;;;;;;;1999.90;999.90;;;;;;;1.19;100.00;162716.53;4970867;28;20384;-65
2022/01/27 07:13:04;;;;;;;1999.90;999.90;;;;;;;0.78;100.00;162605.69;4970820;28;20055;-65
2022/01/27 07:15:31;;;;;;;1999.90;999.90;;;;;;;0.82;100.00;162616.59;4971451;28;20050;-65
2022/01/27 07:17:57;;;;;;;1999.90;999.90;;;;;;;0.86;100.00;162628.97;4970521;28;20384;-65
2022/01/27 07:20:24;;;;;;;1999.90;999.90;;;;;;;0.98;100.00;162660.44;4970848;28;20435;-65
2022/01/27 07:22:50;;;;;;;1999.90;999.90;;;;;;;0.77;100.00;162604.31;4970850;28;20422;-65
2022/01/27 07:25:17;;;;;;;1999.90;999.90;;;;;;;1.44;100.00;162780.81;4984788;28;20051;-65
2022/01/27 07:27:44;;;;;;;1999.90;999.90;;;;;;;0.75;100.00;162597.50;4970491;28;20125;-66
2022/01/27 07:30:10;;;;;;;1999.90;999.90;;;;;;;0.79;100.00;162608.41;4970537;28;20059;-66
2022/01/27 07:32:38;;;;;;;1999.90;999.90;;;;;;;0.64;100.00;162568.72;4970519;28;20046;-65
2022/01/27 07:35:05;;;;;;;1999.90;999.90;;;;;;;0.55;100.00;162545.47;4971177;28;20093;-66
2022/01/27 07:37:31;;;;;;;1999.90;999.90;;;;;;;0.70;100.00;162585.19;4970318;28;20514;-66
2022/01/27 07:39:58;;;;;;;1999.90;999.90;;;;;;;0.75;100.00;162598.84;4969725;28;20502;-66
2022/01/27 07:42:24;;;;;;;1999.90;999.90;;;;;;;0.93;100.00;162645.38;4971658;28;20391;-66
2022/01/27 07:44:51;;;;;;;1999.90;999.90;;;;;;;1.15;100.00;162705.56;4969974;28;20129;-66
2022/01/27 07:47:17;;;;;;;1999.90;999.90;;;;;;;0.79;100.00;162608.41;4969276;28;20073;-65
2022/01/27 07:49:44;;;;;;;1999.90;999.90;;;;;;;0.99;100.00;162663.13;4971093;28;20225;-65
2022/01/27 07:52:11;;;;;;;1999.90;999.90;;;;;;;1.23;100.00;162726.06;4968163;28;20055;-65
2022/01/27 07:54:37;;;;;;;1999.90;999.90;;;;;;;1.30;100.00;162743.91;4969169;28;20082;-66
2022/01/27 07:57:04;;;;;;;1999.90;999.90;;;;;;;1.42;100.00;162775.38;4969638;28;20063;-66
2022/01/27 07:59:30;;;;;;;1999.90;999.90;;;;;;;1.45;100.00;162783.59;4967915;28;20432;-65
2022/01/27 08:01:58;;;;;;;1999.90;999.90;;;;;;;1.10;100.00;162691.84;4964569;28;20108;-65
2022/01/27 08:04:26;;;;;;;1999.90;999.90;;;;;;;1.38;100.00;162765.75;4969199;28;20541;-66
2022/01/27 08:06:52;;;;;;;1999.90;999.90;;;;;;;1.20;100.00;162717.88;4968572;28;20058;-65
2022/01/27 08:09:19;;;;;;;1999.90;999.90;;;;;;;1.17;100.00;162709.66;4967497;28;20038;-64
2022/01/27 08:11:45;;;;;;;1999.90;999.90;;;;;;;0.91;100.00;162641.28;4971298;28;20065;-65
2022/01/27 08:14:12;;;;;;;1999.90;999.90;;;;;;;0.85;100.00;162626.22;4968683;28;20054;-65
2022/01/27 08:16:38;;;;;;;1999.90;999.90;;;;;;;1.09;100.00;162687.75;4970092;28;20396;-67
2022/01/27 08:19:05;;;;;;;1999.90;999.90;;;;;;;0.87;100.00;162630.31;4970576;28;20125;-67
2022/01/27 08:21:32;;;;;;;1999.90;999.90;;;;;;;0.87;100.00;162631.66;4969273;28;20312;-67
2022/01/27 08:23:59;;;;;;;1999.90;999.90;;;;;;;1.03;100.00;162674.09;4970238;28;20054;-67
2022/01/27 08:26:34;;;;;;;1999.90;999.90;;;;;;;1.32;100.00;162750.69;4968723;28;20420;-67
2022/01/27 08:29:11;;;;;;;1999.90;999.90;;;;;;;1.14;100.00;162701.47;4968278;28;20050;-67
2022/01/27 08:31:53;;;;;;;1999.90;999.90;;;;;;;1.49;100.00;162794.50;4969482;28;20317;-67
2022/01/27 08:34:41;;;;;;;1999.90;999.90;;;;;;;1.63;100.00;162832.81;4969057;28;20625;-67
2022/01/27 08:37:11;;;;;;;1999.90;999.90;;;;;;;1.70;99.84;162852.00;4967115;28;20505;-67
2022/01/27 08:39:39;;;;;;;1999.90;999.90;;;;;;;1.74;98.76;162862.97;4968311;28;20046;-67
2022/01/27 08:42:07;;;;;;;1999.90;999.90;;;;;;;1.89;98.59;162901.25;4969175;28;20051;-67
2022/01/27 08:44:34;;;;;;;1999.90;999.90;;;;;;;1.85;97.72;162890.34;4967928;28;20043;-66
2022/01/27 08:47:01;;;;;;;1999.90;999.90;;;;;;;1.40;99.73;162772.63;4968783;28;20063;-66
2022/01/27 08:49:28;;;;;;;1999.90;999.90;;;;;;;1.28;99.68;162739.78;4969394;28;20412;-66
2022/01/27 08:51:55;;;;;;;1999.90;999.90;;;;;;;0.95;100.00;162652.19;4967855;28;20114;-66
2022/01/27 08:54:23;;;;;;;1999.90;999.90;;;;;;;1.16;100.00;162706.91;4970002;28;20047;-67
2022/01/27 08:56:50;;;;;;;1999.90;999.90;;;;;;;1.05;100.00;162679.53;4970649;28;20051;-67
2022/01/27 08:59:16;;;;;;;1999.90;999.90;;;;;;;1.07;100.00;162682.28;4967589;28;20046;-67
2022/01/27 09:01:44;;;;;;;1999.90;999.90;;;;;;;1.16;100.00;162706.91;4977754;28;20054;-67
2022/01/27 09:04:12;;;;;;;1999.90;999.90;;;;;;;1.18;100.00;162712.41;4969438;28;20070;-67
2022/01/27 09:06:38;;;;;;;1999.90;999.90;;;;;;;1.34;100.00;162756.22;4967766;28;20101;-65
2022/01/27 09:09:06;;;;;;;1999.90;999.90;;;;;;;1.49;100.00;162795.91;4970063;28;20047;-65
2022/01/27 09:11:34;;;;;;;1999.90;999.90;;;;;;;1.34;100.00;162756.22;4969485;28;20078;-66
2022/01/27 09:14:03;;;;;;;1999.90;999.90;;;;;;;1.29;100.00;162741.13;4968512;28;20399;-66
2022/01/27 09:16:31;;;;;;;1999.90;999.90;;;;;;;1.85;99.43;162891.69;4969088;28;20078;-66
2022/01/27 09:19:20;;;;;;;1999.90;999.90;;;;;;;1.55;99.42;162810.94;4968828;28;20051;-66
2022/01/27 09:21:47;;;;;;;1999.90;999.90;;;;;;;1.93;98.35;162912.22;4967110;28;20094;-66
2022/01/27 09:24:17;;;;;;;1999.90;999.90;;;;;;;1.92;97.04;162909.47;4968369;28;20113;-66
2022/01/27 09:26:52;;;;;;;1999.90;999.90;;;;;;;1.87;97.58;162895.81;4967733;28;20307;-66
2022/01/27 09:29:20;;;;;;;1999.90;999.90;;;;;;;2.33;95.80;163019.03;4967366;28;20161;-66
2022/01/27 09:31:48;;;;;;;1999.90;999.90;;;;;;;2.26;96.04;163001.25;4968324;28;20138;-66
2022/01/27 09:34:16;;;;;;;1999.90;999.90;;;;;;;2.14;96.43;162967.00;4967368;28;20051;-66
2022/01/27 09:36:44;;;;;;;1999.90;999.90;;;;;;;1.92;97.20;162910.88;4965921;28;20058;-66
2022/01/27 09:39:11;;;;;;;1999.90;999.90;;;;;;;2.02;96.03;162936.84;4970598;28;20051;-66
2022/01/27 09:41:40;;;;;;;1999.90;999.90;;;;;;;1.59;97.89;162821.88;4973055;28;20042;-66
2022/01/27 09:44:11;;;;;;;1999.90;999.90;;;;;;;2.10;98.06;162958.78;4971936;28;20455;-65
2022/01/27 09:46:41;;;;;;;1999.90;999.90;;;;;;;2.23;95.91;162991.63;4971816;28;20061;-66
2022/01/27 09:49:15;;;;;;;1999.90;999.90;;;;;;;2.27;96.62;163002.59;4969834;28;20069;-67
2022/01/27 09:51:45;;;;;;;1999.90;999.90;;;;;;;2.63;94.79;163098.47;4971124;28;20051;-66
2022/01/27 09:54:14;;;;;;;1999.90;999.90;;;;;;;2.52;94.26;163068.38;4971709;28;20106;-67
2022/01/27 09:56:59;;;;;;;1999.90;999.90;;;;;;;2.21;95.28;162986.19;4971182;28;20207;-67
2022/01/27 09:59:32;;;;;;;1999.90;999.90;;;;;;;2.02;96.10;162935.50;4970331;28;20122;-67
2022/01/27 10:02:05;;;;;;;1999.90;999.90;;;;;;;1.69;96.55;162849.25;4971689;28;20440;-66
2022/01/27 10:04:48;;;;;;;1999.90;999.90;;;;;;;1.42;98.03;162775.38;4971696;28;20583;-66
2022/01/27 10:07:20;;;;;;;1999.90;999.90;;;;;;;1.48;98.74;162793.13;4966691;28;20157;-66
2022/01/27 10:09:58;;;;;;;1999.90;999.90;;;;;;;1.41;98.41;162773.97;4971936;28;20045;-67
2022/01/27 10:12:32;;;;;;;1999.90;999.90;;;;;;;1.45;98.28;162783.59;4972442;28;20415;-67
2022/01/27 10:15:02;;;;;;;1999.90;999.90;;;;;;;1.49;98.14;162794.50;4971047;28;20139;-66
2022/01/27 10:17:30;;;;;;;1999.90;999.90;;;;;;;1.47;97.80;162789.03;4971923;28;20055;-67
2022/01/27 10:19:57;;;;;;;1999.90;999.90;;;;;;;1.85;97.49;162890.34;4971999;28;20448;-67
2022/01/27 10:22:24;;;;;;;1999.90;999.90;;;;;;;1.59;97.45;162821.88;4970687;28;20376;-67
2022/01/27 10:25:09;;;;;;;1999.90;999.90;;;;;;;1.45;97.58;162783.59;4972201;28;20460;-67
2022/01/27 10:28:07;;;;;;;1999.90;999.90;;;;;;;1.41;98.64;162773.97;4972088;28;20293;-67
2022/01/27 10:33:02;;;;;;;1999.90;999.90;;;;;;;1.13;99.45;162698.72;4971434;28;20055;-66
2022/01/27 10:35:30;;;;;;;1999.90;999.90;;;;;;;1.07;98.63;162682.28;4972756;28;20054;-67
2022/01/27 10:38:06;;;;;;;1999.90;999.90;;;;;;;1.06;98.96;162680.94;4971085;28;20057;-67
2022/01/27 10:40:38;;;;;;;1999.90;999.90;;;;;;;1.28;98.88;162738.38;4971813;28;20054;-67
2022/01/27 10:43:12;;;;;;;1999.90;999.90;;;;;;;1.37;98.20;162764.41;4972116;28;20363;-67
2022/01/27 10:46:01;;;;;;;1999.90;999.90;;;;;;;1.47;98.39;162789.03;4972374;28;20054;-68
2022/01/27 10:48:31;;;;;;;1999.90;999.90;;;;;;;1.90;97.34;162904.00;4969778;28;20042;-68
2022/01/27 10:53:56;;;;;;;1999.90;999.90;;;;;;;2.01;96.62;162932.75;4970679;28;20055;-68
2022/01/27 10:56:29;;;;;;;1999.90;999.90;;;;;;;1.68;96.51;162845.13;4980010;28;20043;-68
2022/01/27 10:58:57;;;;;;;1999.90;999.90;;;;;;;1.64;98.84;162835.59;4970928;28;20052;-67
2022/01/27 11:01:37;;;;;;;1999.90;999.90;;;;;;;1.85;97.93;162890.34;4970573;28;20051;-67
2022/01/27 11:04:06;;;;;;;1999.90;999.90;;;;;;;1.29;98.23;162742.50;4970415;28;20051;-67
2022/01/27 11:06:34;;;;;;;1999.90;999.90;;;;;;;1.60;98.90;162824.63;4971559;28;20049;-67
2022/01/27 11:09:08;;;;;;;1999.90;999.90;;;;;;;1.78;97.83;162871.19;4971574;28;20423;-67
2022/01/27 11:11:40;;;;;;;1999.90;999.90;;;;;;;1.51;98.00;162801.34;4969728;28;20054;-67
2022/01/27 11:14:06;;;;;;;;;;;;;;;1.31;98.43;162748.00;4971332;28;20050;-67
2022/01/27 11:16:40;;;;;;;1999.90;999.90;;;;;;;1.54;98.26;162808.19;4972616;28;19926;-67
2022/01/27 11:22:02;;;;;;;1999.90;999.90;;;;;;;1.57;98.19;162816.41;4970551;28;20409;-67
2022/01/27 11:24:43;;;;;;;1999.90;999.90;;;;;;;1.95;96.57;162917.72;4970480;28;20062;-67
2022/01/27 11:27:13;;;;;;;1999.90;999.90;;;;;;;1.68;97.23;162846.53;4969961;28;20077;-67
2022/01/27 11:29:50;;;;;;;1999.90;999.90;;;;;;;1.60;97.37;162824.63;4969747;28;20402;-67
2022/01/27 11:32:28;;;;;;;1999.90;999.90;;;;;;;1.52;98.51;162804.09;4969515;28;20057;-66
2022/01/27 11:34:56;;;;;;;1999.90;999.90;;;;;;;1.14;99.76;162701.47;4971908;28;20050;-66
2022/01/27 11:37:36;;;;;;;1999.90;999.90;;;;;;;1.54;98.69;162808.19;4969551;28;20082;-66
2022/01/27 11:40:08;;;;;;;1999.90;999.90;;;;;;;1.30;98.14;162743.91;4970595;28;20133;-65
2022/01/27 11:42:55;;;;;;;1999.90;999.90;;;;;;;1.19;99.50;162715.13;4970653;28;20047;-66
2022/01/27 11:45:23;;;;;;;1999.90;999.90;;;;;;;1.62;98.57;162830.06;4969296;28;20441;-65
2022/01/27 11:48:06;;;;;;;1999.90;999.90;;;;;;;1.24;99.27;162728.84;4969978;28;20085;-65
2022/01/27 11:50:38;;;;;;;1999.90;999.90;;;;;;;1.16;99.75;162706.91;4971444;28;20051;-65